Terminal Aerodrome Forecast
Issued by NWS

Home | Current Version | Previous Version | Text Only | Print | Product List | Glossary On
Versions: 1 2 3 4 5 6 7 8 9 10 11 12 13 14
680
FTUS42 KILM 252322
TAFCRE
TAF
KCRE 252322Z 2600/2624 20006KT P6SM -SHRA OVC060
      TEMPO 2601/2603 4SM TSRA BKN025CB
     FM260600 33004KT 3SM BR BKN045
     FM261100 35005KT P6SM BKN045
     FM261300 02005KT P6SM BKN045
     FM261700 08006KT P6SM BKN050
     FM262300 15005KT P6SM SCT250=

USA.gov is the U.S. government's official web portal to all federal, state and local government web resources and services.